Time;durP1;ratioP1;P1;durP2;ratioP2;P2;SDS_P1;SDS_P2;PMS_P1;PMS_P2;Temp;Humidity;BMP_temperature;BMP_pressure;BME280_temperature;BME280_humidity;BME280_pressure;Samples;Min_cycle;Max_cycle;Signal;HPM_P1;HPM_P2
2022/11/01 00:00:30;;;;;;;;;;;;;;;-144.43;100.00;67396.00;4888368;29;20018;-61
2022/11/01 00:02:57;;;;;;;;;;;;;;;-144.43;100.00;67396.00;4885062;29;19924;-61
2022/11/01 00:05:23;;;;;;;;;;;;;;;-144.43;100.00;67396.00;4888624;29;19923;-61
2022/11/01 00:07:51;;;;;;;;;;;;;;;-144.43;100.00;67396.00;4886421;29;20022;-60
2022/11/01 00:10:17;;;;;;;;;;;;;;;-144.43;100.00;67396.00;4878609;29;21318;-62
2022/11/01 00:12:44;;;;;;;;;;;;;;;-144.43;100.00;67396.00;4888466;29;19923;-61
2022/11/01 00:15:10;;;;;;;;;;;;;;;-144.43;100.00;67396.00;4888351;29;19921;-61
2022/11/01 00:17:37;;;;;;;;;;;;;;;-144.43;100.00;67396.00;4891572;29;19979;-61
2022/11/01 00:20:03;;;;;;;;;;;;;;;-144.43;100.00;67396.00;4889701;29;20374;-62
2022/11/01 00:22:29;;;;;;;;;;;;;;;-144.43;100.00;67396.00;4891699;29;19923;-62
2022/11/01 00:24:56;;;;;;;;;;;;;;;-144.43;100.00;67396.00;4894516;29;19930;-62
2022/11/01 00:27:22;;;;;;;;;;;;;;;-144.43;100.00;67396.00;4890575;29;20382;-63
2022/11/01 00:29:48;;;;;;;;;;;;;;;-144.43;100.00;67396.00;4888839;29;19927;-63
2022/11/01 00:32:15;;;;;;;;;;;;;;;-144.43;100.00;67396.00;4892247;29;19931;-65
2022/11/01 00:34:41;;;;;;;;;;;;;;;-144.43;100.00;67396.00;4889887;29;19979;-64
2022/11/01 00:37:07;;;;;;;;;;;;;;;-144.43;100.00;67396.00;4891273;29;19927;-63
2022/11/01 00:39:33;;;;;;;;;;;;;;;-144.43;100.00;67396.00;4893322;29;19920;-64
2022/11/01 00:42:00;;;;;;;;;;;;;;;-144.43;100.00;67396.00;4896322;29;19927;-62
2022/11/01 00:44:26;;;;;;;;;;;;;;;-144.43;100.00;67396.00;4896320;29;19923;-64
2022/11/01 00:46:53;;;;;;;;;;;;;;;-144.43;100.00;67396.00;4895117;29;19962;-60
2022/11/01 00:49:19;;;;;;;;;;;;;;;-144.43;100.00;67396.00;4895023;29;19920;-63
2022/11/01 00:51:45;;;;;;;;;;;;;;;-144.43;100.00;67396.00;4894810;29;20445;-61
2022/11/01 00:54:11;;;;;;;;;;;;;;;-144.43;100.00;67396.00;4896962;29;19963;-60
2022/11/01 00:56:38;;;;;;;;;;;;;;;-144.43;100.00;67396.00;4896380;29;19951;-61
2022/11/01 00:59:04;;;;;;;;;;;;;;;-144.43;100.00;67396.00;4896344;29;19927;-63
2022/11/01 01:01:31;;;;;;;;;;;;;;;-144.43;100.00;67396.00;4896422;29;19949;-62
2022/11/01 01:03:57;;;;;;;;;;;;;;;-144.43;100.00;67396.00;4896618;29;19919;-64
2022/11/01 01:06:24;;;;;;;;;;;;;;;-144.43;100.00;67396.00;4896454;29;19923;-62
2022/11/01 01:08:50;;;;;;;;;;;;;;;-144.43;100.00;67396.00;4883019;29;19982;-64
2022/11/01 01:11:16;;;;;;;;;;;;;;;-144.43;100.00;67396.00;4897934;29;19934;-62
2022/11/01 01:13:42;;;;;;;;;;;;;;;-144.43;100.00;67396.00;4900448;29;19991;-63
2022/11/01 01:16:10;;;;;;;;;;;;;;;-144.43;100.00;67396.00;4899955;29;19995;-62
2022/11/01 01:18:36;;;;;;;;;;;;;;;-144.43;100.00;67396.00;4899091;29;19955;-63
2022/11/01 01:21:03;;;;;;;;;;;;;;;-144.43;100.00;67396.00;4898511;29;20029;-63
2022/11/01 01:23:30;;;;;;;;;;;;;;;-144.43;100.00;67396.00;4899619;29;19975;-62
2022/11/01 01:25:56;;;;;;;;;;;;;;;-144.43;100.00;67396.00;4900175;29;19928;-63
2022/11/01 01:28:22;;;;;;;;;;;;;;;-144.43;100.00;67396.00;4900049;29;19920;-62
2022/11/01 01:30:48;;;;;;;;;;;;;;;-144.43;100.00;67396.00;4899830;29;19929;-62
2022/11/01 01:33:14;;;;;;;;;;;;;;;-144.43;100.00;67396.00;4900294;29;19945;-63
2022/11/01 01:35:41;;;;;;;;;;;;;;;-144.43;100.00;67396.00;4900160;29;19927;-63
2022/11/01 01:38:07;;;;;;;;;;;;;;;-144.43;100.00;67396.00;4900220;29;20382;-63
2022/11/01 01:40:34;;;;;;;;;;;;;;;-144.43;100.00;67396.00;4870212;29;19924;-63
2022/11/01 01:43:00;;;;;;;;;;;;;;;-144.43;100.00;67396.00;4862456;29;19979;-63
2022/11/01 01:45:31;;;;;;;;;;;;;;;-144.43;100.00;67396.00;4862749;29;20030;-63
2022/11/01 01:48:06;;;;;;;;;;;;;;;-144.43;100.00;67396.00;4862552;29;20080;-63
2022/11/01 01:50:55;;;;;;;;;;;;;;;-144.43;100.00;67396.00;4862668;29;20375;-63
2022/11/01 01:53:28;;;;;;;;;;;;;;;-144.43;100.00;67396.00;4862516;29;19924;-63
2022/11/01 01:56:06;;;;;;;;;;;;;;;-144.43;100.00;67396.00;4862623;29;19924;-63
2022/11/01 01:58:35;;;;;;;;;;;;;;;-144.43;100.00;67396.00;4862546;29;19924;-63
2022/11/01 02:01:01;;;;;;;;;;;;;;;-144.43;100.00;67396.00;4862385;29;20355;-64
2022/11/01 02:03:30;;;;;;;;;;;;;;;-144.43;100.00;67396.00;4845723;29;19924;-63
2022/11/01 02:05:58;;;;;;;;;;;;;;;-144.43;100.00;67396.00;4862577;29;19987;-63
2022/11/01 02:08:27;;;;;;;;;;;;;;;-144.43;100.00;67396.00;4862352;29;19999;-63
2022/11/01 02:10:58;;;;;;;;;;;;;;;-144.43;100.00;67396.00;4861872;29;20294;-62
2022/11/01 02:13:24;;;;;;;;;;;;;;;-144.43;100.00;67396.00;4862136;29;20031;-63
2022/11/01 02:16:09;;;;;;;;;;;;;;;-144.43;100.00;67396.00;4862115;29;19920;-62
2022/11/01 02:18:42;;;;;;;;;;;;;;;-144.43;100.00;67396.00;4862111;29;19980;-62
2022/11/01 02:21:41;;;;;;;;;;;;;;;-144.43;100.00;67396.00;4862266;29;20290;-63
2022/11/01 02:24:26;;;;;;;;;;;;;;;-144.43;100.00;67396.00;4860724;29;19999;-63
2022/11/01 02:26:55;;;;;;;;;;;;;;;-144.43;100.00;67396.00;4861996;29;20306;-63
2022/11/01 02:29:50;;;;;;;;;;;;;;;-144.43;100.00;67396.00;4861865;29;20367;-63
2022/11/01 02:32:27;;;;;;;;;;;;;;;-144.43;100.00;67396.00;4850665;29;19934;-62
2022/11/01 02:35:05;;;;;;;;;;;;;;;-144.43;100.00;67396.00;4861804;29;19964;-62
2022/11/01 02:38:01;;;;;;;;;;;;;;;-144.43;100.00;67396.00;4861761;29;19924;-63
2022/11/01 02:40:33;;;;;;;;;;;;;;;-144.43;100.00;67396.00;4869828;29;19999;-63
2022/11/01 02:43:04;;;;;;;;;;;;;;;-144.43;100.00;67396.00;4898546;29;19934;-63
2022/11/01 02:45:33;;;;;;;;;;;;;;;-144.43;100.00;67396.00;4898874;29;19934;-62
2022/11/01 02:48:00;;;;;;;;;;;;;;;-144.43;100.00;67396.00;4898563;29;19919;-64
2022/11/01 02:50:29;;;;;;;;;;;;;;;-144.43;100.00;67396.00;4898490;29;19933;-61
2022/11/01 02:52:55;;;;;;;;;;;;;;;-144.43;100.00;67396.00;4898533;29;20297;-64
2022/11/01 02:55:29;;;;;;;;;;;;;;;-144.43;100.00;67396.00;4898833;29;19928;-63
2022/11/01 02:57:59;;;;;;;;;;;;;;;-144.43;100.00;67396.00;4898947;29;19927;-62
2022/11/01 03:00:26;;;;;;;;;;;;;;;-144.43;100.00;67396.00;4898724;29;19933;-61
2022/11/01 03:02:55;;;;;;;;;;;;;;;-144.43;100.00;67396.00;4898487;29;19926;-62
2022/11/01 03:05:44;;;;;;;;;;;;;;;-144.43;100.00;67396.00;4898561;29;19978;-62
2022/11/01 03:08:14;;;;;;;;;;;;;;;-144.43;100.00;67396.00;4888808;29;19923;-62
2022/11/01 03:10:44;;;;;;;;;;;;;;;-144.43;100.00;67396.00;4898069;29;19919;-61
2022/11/01 03:13:27;;;;;;;;;;;;;;;-144.43;100.00;67396.00;4898226;29;19947;-63
2022/11/01 03:16:04;;;;;;;;;;;;;;;-144.43;100.00;67396.00;4898481;29;19955;-62
2022/11/01 03:18:39;;;;;;;;;;;;;;;-144.43;100.00;67396.00;4898407;29;20015;-63
2022/11/01 03:21:14;;;;;;;;;;;;;;;-144.43;100.00;67396.00;4898431;29;19923;-62
2022/11/01 03:23:54;;;;;;;;;;;;;;;-144.43;100.00;67396.00;4881621;29;19974;-62
2022/11/01 03:26:24;;;;;;;;;;;;;;;-144.43;100.00;67396.00;4890731;29;20030;-62
2022/11/01 03:28:54;;;;;;;;;;;;;;;-144.43;100.00;67396.00;4897851;29;20377;-64
2022/11/01 03:31:27;;;;;;;;;;;;;;;-144.43;100.00;67396.00;4898069;29;19935;-62
2022/11/01 03:33:56;;;;;;;;;;;;;;;-144.43;100.00;67396.00;4897658;29;19991;-63
2022/11/01 03:36:25;;;;;;;;;;;;;;;-144.43;100.00;67396.00;4898059;29;19919;-62
2022/11/01 03:38:55;;;;;;;;;;;;;;;-144.43;100.00;67396.00;4897783;29;19928;-63
2022/11/01 03:41:23;;;;;;;;;;;;;;;-144.43;100.00;67396.00;4891155;29;19923;-64
2022/11/01 03:43:49;;;;;;;;;;;;;;;-144.43;100.00;67396.00;4897848;29;19924;-62
2022/11/01 03:46:15;;;;;;;;;;;;;;;-144.43;100.00;67396.00;4898193;29;20010;-63
2022/11/01 03:48:42;;;;;;;;;;;;;;;-144.43;100.00;67396.00;4897661;29;19930;-61
2022/11/01 03:51:08;;;;;;;;;;;;;;;-144.43;100.00;67396.00;4897663;29;19930;-62
2022/11/01 03:53:35;;;;;;;;;;;;;;;-144.43;100.00;67396.00;4898026;29;19931;-63
2022/11/01 03:56:01;;;;;;;;;;;;;;;-144.43;100.00;67396.00;4897793;29;20378;-62
2022/11/01 03:58:40;;;;;;;;;;;;;;;-144.43;100.00;67396.00;4897782;29;20014;-63
2022/11/01 04:01:07;;;;;;;;;;;;;;;-144.43;100.00;67396.00;4897639;29;19927;-62
2022/11/01 04:03:33;;;;;;;;;;;;;;;-144.43;100.00;67396.00;4897639;29;19927;-63
2022/11/01 04:06:00;;;;;;;;;;;;;;;-144.43;100.00;67396.00;4897711;29;19946;-63
2022/11/01 04:08:26;;;;;;;;;;;;;;;-144.43;100.00;67396.00;4897585;29;19946;-62
2022/11/01 04:10:52;;;;;;;;;;;;;;;-144.43;100.00;67396.00;4897324;29;20251;-62
2022/11/01 04:13:18;;;;;;;;;;;;;;;-144.43;100.00;67396.00;4897455;29;19924;-61
2022/11/01 04:21:17;;;;;;;;;;;;;;;-144.43;100.00;67396.00;4897743;29;19931;-62
2022/11/01 04:23:43;;;;;;;;;;;;;;;-144.43;100.00;67396.00;4897512;29;20357;-62
2022/11/01 04:26:14;;;;;;;;;;;;;;;-144.43;100.00;67396.00;4897495;29;19953;-62
2022/11/01 04:28:40;;;;;;;;;;;;;;;-144.43;100.00;67396.00;4887269;29;19930;-61
2022/11/01 04:31:07;;;;;;;;;;;;;;;-144.43;100.00;67396.00;4895953;29;19975;-61
2022/11/01 04:33:33;;;;;;;;;;;;;;;-144.43;100.00;67396.00;4896571;29;20015;-62
2022/11/01 04:36:08;;;;;;;;;;;;;;;-144.43;100.00;67396.00;4897190;29;20338;-63
2022/11/01 04:38:34;;;;;;;;;;;;;;;-144.43;100.00;67396.00;4897418;29;19959;-62
2022/11/01 04:41:00;;;;;;;;;;;;;;;-144.43;100.00;67396.00;4896725;29;20362;-62
2022/11/01 04:43:27;;;;;;;;;;;;;;;-144.43;100.00;67396.00;4880709;29;19932;-62
2022/11/01 04:45:56;;;;;;;;;;;;;;;-144.43;100.00;67396.00;4897719;29;19919;-62
2022/11/01 04:48:22;;;;;;;;;;;;;;;-144.43;100.00;67396.00;4900937;29;19924;-61
2022/11/01 04:50:49;;;;;;;;;;;;;;;-144.43;100.00;67396.00;4900861;29;19920;-61
2022/11/01 04:53:15;;;;;;;;;;;;;;;-144.43;100.00;67396.00;4900871;29;19923;-62
2022/11/01 04:55:41;;;;;;;;;;;;;;;-144.43;100.00;67396.00;4900880;29;19920;-62
2022/11/01 04:58:09;;;;;;;;;;;;;;;-144.43;100.00;67396.00;4900783;29;20377;-62
2022/11/01 05:00:36;;;;;;;;;;;;;;;-144.43;100.00;67396.00;4900992;29;19974;-62
2022/11/01 05:03:04;;;;;;;;;;;;;;;-144.43;100.00;67396.00;4900629;29;19931;-63
2022/11/01 05:05:30;;;;;;;;;;;;;;;-144.43;100.00;67396.00;4900568;29;20018;-64
2022/11/01 05:08:07;;;;;;;;;;;;;;;-144.43;100.00;67396.00;4900548;29;19928;-63
2022/11/01 05:10:34;;;;;;;;;;;;;;;-144.43;100.00;67396.00;4900315;29;19923;-62
2022/11/01 05:13:01;;;;;;;;;;;;;;;-144.43;100.00;67396.00;4900581;29;19931;-62
2022/11/01 05:15:27;;;;;;;;;;;;;;;-144.43;100.00;67396.00;4902382;29;19984;-62
2022/11/01 05:17:54;;;;;;;;;;;;;;;-144.43;100.00;67396.00;4900527;29;20319;-62
2022/11/01 05:20:20;;;;;;;;;;;;;;;-144.43;100.00;67396.00;4919757;29;19926;-60
2022/11/01 05:22:47;;;;;;;;;;;;;;;-144.43;100.00;67396.00;4901798;29;19928;-61
2022/11/01 05:25:13;;;;;;;;;;;;;;;-144.43;100.00;67396.00;4900003;29;20290;-61
2022/11/01 05:27:39;;;;;;;;;;;;;;;-144.43;100.00;67396.00;4897334;29;19919;-61
2022/11/01 05:30:06;;;;;;;;;;;;;;;-144.43;100.00;67396.00;4900651;29;19924;-62
2022/11/01 05:32:34;;;;;;;;;;;;;;;-144.43;100.00;67396.00;4899802;29;19923;-61
2022/11/01 05:35:01;;;;;;;;;;;;;;;-144.43;100.00;67396.00;4907406;29;19958;-61
2022/11/01 05:37:27;;;;;;;;;;;;;;;-144.43;100.00;67396.00;4908528;29;19926;-62
2022/11/01 05:39:53;;;;;;;;;;;;;;;-144.43;100.00;67396.00;4909908;29;19923;-61
2022/11/01 05:42:20;;;;;;;;;;;;;;;-144.43;100.00;67396.00;4903373;29;20289;-59
2022/11/01 05:44:47;;;;;;;;;;;;;;;-144.43;100.00;67396.00;4899445;29;20262;-62
2022/11/01 05:47:13;;;;;;;;;;;;;;;-144.43;100.00;67396.00;4898390;29;19930;-62
2022/11/01 05:49:40;;;;;;;;;;;;;;;-144.43;100.00;67396.00;4901823;29;19975;-62
2022/11/01 05:52:06;;;;;;;;;;;;;;;-144.43;100.00;67396.00;4906515;29;19951;-62
2022/11/01 05:54:32;;;;;;;;;;;;;;;-144.43;100.00;67396.00;4908065;29;19974;-62
2022/11/01 05:56:59;;;;;;;;;;;;;;;-144.43;100.00;67396.00;4908414;29;19927;-62
2022/11/01 05:59:25;;;;;;;;;;;;;;;-144.43;100.00;67396.00;4909139;29;19986;-62
2022/11/01 06:01:51;;;;;;;;;;;;;;;-144.43;100.00;67396.00;4907794;29;19931;-61
2022/11/01 06:04:17;;;;;;;;;;;;;;;-144.43;100.00;67396.00;4909333;29;19990;-61
2022/11/01 06:06:44;;;;;;;;;;;;;;;-144.43;100.00;67396.00;4908896;29;19927;-61
2022/11/01 06:09:10;;;;;;;;;;;;;;;-144.43;100.00;67396.00;4907375;29;20418;-61
2022/11/01 06:11:36;;;;;;;;;;;;;;;-144.43;100.00;67396.00;4909261;29;20373;-61
2022/11/01 06:14:02;;;;;;;;;;;;;;;-144.43;100.00;67396.00;4901335;29;19915;-60
2022/11/01 06:16:29;;;;;;;;;;;;;;;-144.43;100.00;67396.00;4898905;29;19931;-60
2022/11/01 06:18:55;;;;;;;;;;;;;;;-144.43;100.00;67396.00;4898736;29;19919;-63
2022/11/01 06:21:21;;;;;;;;;;;;;;;-144.43;100.00;67396.00;4898850;29;19923;-61
2022/11/01 06:23:51;;;;;;;;;;;;;;;-144.43;100.00;67396.00;4898815;29;20397;-61
2022/11/01 06:26:17;;;;;;;;;;;;;;;-144.43;100.00;67396.00;4899076;29;19927;-61
2022/11/01 06:28:48;;;;;;;;;;;;;;;-144.43;100.00;67396.00;4898845;29;19919;-60
2022/11/01 06:31:14;;;;;;;;;;;;;;;-144.43;100.00;67396.00;4898515;29;19923;-60
2022/11/01 06:33:40;;;;;;;;;;;;;;;-144.43;100.00;67396.00;4898654;29;19931;-61
2022/11/01 06:36:07;;;;;;;;;;;;;;;-144.43;100.00;67396.00;4900078;29;19938;-60
2022/11/01 06:38:33;;;;;;;;;;;;;;;-144.43;100.00;67396.00;4908360;29;19977;-59
2022/11/01 06:40:59;;;;;;;;;;;;;;;-144.43;100.00;67396.00;4908161;29;19931;-60
2022/11/01 06:43:26;;;;;;;;;;;;;;;-144.43;100.00;67396.00;4906962;29;19927;-61
2022/11/01 06:45:52;;;;;;;;;;;;;;;-144.43;100.00;67396.00;4907878;29;19919;-60
2022/11/01 06:48:18;;;;;;;;;;;;;;;-144.43;100.00;67396.00;4908571;29;19924;-61
2022/11/01 06:50:44;;;;;;;;;;;;;;;-144.43;100.00;67396.00;4906757;29;19979;-61
2022/11/01 06:53:11;;;;;;;;;;;;;;;-144.43;100.00;67396.00;4908105;29;19991;-61
2022/11/01 06:55:37;;;;;;;;;;;;;;;-144.43;100.00;67396.00;4908356;29;19927;-60
2022/11/01 06:58:03;;;;;;;;;;;;;;;-144.43;100.00;67396.00;4906502;29;20006;-61
2022/11/01 07:00:30;;;;;;;;;;;;;;;-144.43;100.00;67396.00;4908211;29;19923;-61
2022/11/01 07:03:04;;;;;;;;;;;;;;;-144.43;100.00;67396.00;4907940;29;19927;-60
2022/11/01 07:05:35;;;;;;;;;;;;;;;-144.43;100.00;67396.00;4888379;29;20310;-61
2022/11/01 07:08:01;;;;;;;;;;;;;;;-144.43;100.00;67396.00;4906412;29;19930;-61
2022/11/01 07:10:28;;;;;;;;;;;;;;;-144.43;100.00;67396.00;4902212;29;20022;-60
2022/11/01 07:12:58;;;;;;;;;;;;;;;-144.43;100.00;67396.00;4902452;29;19924;-61
2022/11/01 07:15:24;;;;;;;;;;;;;;;-144.43;100.00;67396.00;4897540;29;19927;-60
2022/11/01 07:17:53;;;;;;;;;;;;;;;-144.43;100.00;67396.00;4898435;29;19919;-61
2022/11/01 07:20:20;;;;;;;;;;;;;;;-144.43;100.00;67396.00;4898361;29;20436;-61
2022/11/01 07:22:46;;;;;;;;;;;;;;;-144.43;100.00;67396.00;4898081;29;19942;-62
2022/11/01 07:25:12;;;;;;;;;;;;;;;-144.43;100.00;67396.00;4897820;29;19926;-61
2022/11/01 07:27:38;;;;;;;;;;;;;;;-144.43;100.00;67396.00;4898204;29;19927;-61
2022/11/01 07:30:05;;;;;;;;;;;;;;;-144.43;100.00;67396.00;4897830;29;20126;-62
2022/11/01 07:32:32;;;;;;;;;;;;;;;-144.43;100.00;67396.00;4898270;29;19927;-61
2022/11/01 07:34:58;;;;;;;;;;;;;;;-144.43;100.00;67396.00;4897901;29;20393;-61
2022/11/01 07:37:27;;;;;;;;;;;;;;;-144.43;100.00;67396.00;4898011;29;19930;-61
2022/11/01 07:39:53;;;;;;;;;;;;;;;-144.43;100.00;67396.00;4897601;29;19923;-61
2022/11/01 07:42:20;;;;;;;;;;;;;;;-144.43;100.00;67396.00;4897724;29;19924;-62
2022/11/01 07:44:46;;;;;;;;;;;;;;;-144.43;100.00;67396.00;4897681;29;19951;-61
2022/11/01 07:47:12;;;;;;;;;;;;;;;-144.43;100.00;67396.00;4898076;29;20279;-61
2022/11/01 07:49:38;;;;;;;;;;;;;;;-144.43;100.00;67396.00;4897783;29;19931;-61
2022/11/01 07:52:05;;;;;;;;;;;;;;;-144.43;100.00;67396.00;4897854;29;19919;-61
2022/11/01 07:54:31;;;;;;;;;;;;;;;-144.43;100.00;67396.00;4897836;29;20014;-62
2022/11/01 07:56:57;;;;;;;;;;;;;;;-144.43;100.00;67396.00;4897555;29;20025;-61
2022/11/01 07:59:23;;;;;;;;;;;;;;;-144.43;100.00;67396.00;4897590;29;19923;-62
2022/11/01 08:01:49;;;;;;;;;;;;;;;-144.43;100.00;67396.00;4898053;29;19920;-61
2022/11/01 08:04:16;;;;;;;;;;;;;;;-144.43;100.00;67396.00;4912720;29;20389;-61
2022/11/01 08:06:42;;;;;;;;;;;;;;;-144.43;100.00;67396.00;4897725;29;19923;-60
2022/11/01 08:09:08;;;;;;;;;;;;;;;-144.43;100.00;67396.00;4897179;29;19923;-61
2022/11/01 08:11:34;;;;;;;;;;;;;;;-144.43;100.00;67396.00;4897514;29;19919;-61
2022/11/01 08:14:01;;;;;;;;;;;;;;;-144.43;100.00;67396.00;4897344;29;19955;-60
2022/11/01 08:16:27;;;;;;;;;;;;;;;-144.43;100.00;67396.00;4897565;29;19923;-61
2022/11/01 08:18:53;;;;;;;;;;;;;;;-144.43;100.00;67396.00;4897401;29;19923;-60
2022/11/01 08:21:19;;;;;;;;;;;;;;;-144.43;100.00;67396.00;4897325;29;19926;-60
2022/11/01 08:23:46;;;;;;;;;;;;;;;-144.43;100.00;67396.00;4897443;29;20018;-60
2022/11/01 08:26:12;;;;;;;;;;;;;;;-144.43;100.00;67396.00;4882043;29;20388;-60
2022/11/01 08:28:39;;;;;;;;;;;;;;;-144.43;100.00;67396.00;4897302;29;20398;-61
2022/11/01 08:31:07;;;;;;;;;;;;;;;-144.43;100.00;67396.00;4897318;29;19919;-60
2022/11/01 08:33:33;;;;;;;;;;;;;;;-144.43;100.00;67396.00;4897411;29;19955;-60
2022/11/01 08:36:00;;;;;;;;;;;;;;;-144.43;100.00;67396.00;4897303;29;19923;-60
2022/11/01 08:38:26;;;;;;;;;;;;;;;-144.43;100.00;67396.00;4897242;29;19988;-60
2022/11/01 08:40:53;;;;;;;;;;;;;;;-144.43;100.00;67396.00;4896496;29;19924;-60
2022/11/01 08:43:19;;;;;;;;;;;;;;;-144.43;100.00;67396.00;4897287;29;19930;-59
2022/11/01 08:45:46;;;;;;;;;;;;;;;-144.43;100.00;67396.00;4897365;29;19919;-61
2022/11/01 08:48:12;;;;;;;;;;;;;;;-144.43;100.00;67396.00;4881760;29;19931;-61
2022/11/01 08:50:39;;;;;;;;;;;;;;;-144.43;100.00;67396.00;4898722;29;19974;-62
2022/11/01 08:53:09;;;;;;;;;;;;;;;-144.43;100.00;67396.00;4906020;29;20370;-61
2022/11/01 08:55:35;;;;;;;;;;;;;;;-144.43;100.00;67396.00;4897434;29;19946;-61
2022/11/01 08:58:02;;;;;;;;;;;;;;;-144.43;100.00;67396.00;4897320;29;19923;-61
2022/11/01 09:00:28;;;;;;;;;;;;;;;-144.43;100.00;67396.00;4897319;29;20377;-61
2022/11/01 09:02:55;;;;;;;;;;;;;;;-144.43;100.00;67396.00;4896896;29;20274;-61
2022/11/01 09:05:21;;;;;;;;;;;;;;;-144.43;100.00;67396.00;4897070;29;19923;-61
2022/11/01 09:07:48;;;;;;;;;;;;;;;-144.43;100.00;67396.00;4896929;29;20350;-61
2022/11/01 09:10:15;;;;;;;;;;;;;;;-144.43;100.00;67396.00;4896756;29;19924;-61
2022/11/01 09:12:41;;;;;;;;;;;;;;;-144.43;100.00;67396.00;4896924;29;20297;-61
2022/11/01 09:15:08;;;;;;;;;;;;;;;-144.43;100.00;67396.00;4896863;29;19923;-61
2022/11/01 09:17:34;;;;;;;;;;;;;;;-144.43;100.00;67396.00;4897018;29;20010;-62
2022/11/01 09:20:01;;;;;;;;;;;;;;;-144.43;100.00;67396.00;4896983;29;19926;-60
2022/11/01 09:22:27;;;;;;;;;;;;;;;-144.43;100.00;67396.00;4896894;29;20441;-61
2022/11/01 09:24:56;;;;;;;;;;;;;;;-144.43;100.00;67396.00;4896821;29;19919;-61
2022/11/01 09:27:22;;;;;;;;;;;;;;;-144.43;100.00;67396.00;4896673;29;19990;-60
2022/11/01 09:29:48;;;;;;;;;;;;;;;-144.43;100.00;67396.00;4896352;29;19920;-61
2022/11/01 09:32:15;;;;;;;;;;;;;;;-144.43;100.00;67396.00;4897964;29;19974;-61
2022/11/01 09:34:41;;;;;;;;;;;;;;;-144.43;100.00;67396.00;4900045;29;19919;-61
2022/11/01 09:37:09;;;;;;;;;;;;;;;-144.43;100.00;67396.00;4900219;29;19924;-61
2022/11/01 09:39:35;;;;;;;;;;;;;;;-144.43;100.00;67396.00;4882999;29;19963;-62
2022/11/01 09:42:03;;;;;;;;;;;;;;;-144.43;100.00;67396.00;4900192;29;19988;-62
2022/11/01 09:44:35;;;;;;;;;;;;;;;-144.43;100.00;67396.00;4900054;29;20297;-61
2022/11/01 09:47:17;;;;;;;;;;;;;;;-144.43;100.00;67396.00;4899996;29;19927;-61
2022/11/01 09:49:46;;;;;;;;;;;;;;;-144.43;100.00;67396.00;4900017;29;19927;-61
2022/11/01 09:52:18;;;;;;;;;;;;;;;-144.43;100.00;67396.00;4900113;29;19920;-62
2022/11/01 09:54:46;;;;;;;;;;;;;;;-144.43;100.00;67396.00;4899755;29;20135;-64
2022/11/01 09:57:18;;;;;;;;;;;;;;;-144.43;100.00;67396.00;4914277;29;20374;-62
2022/11/01 10:00:05;;;;;;;;;;;;;;;-144.43;100.00;67396.00;4899789;29;20002;-61
2022/11/01 10:02:44;;;;;;;;;;;;;;;-144.43;100.00;67396.00;4886714;29;20446;-61
2022/11/01 10:05:29;;;;;;;;;;;;;;;-144.43;100.00;67396.00;4899745;29;19930;-61
2022/11/01 10:08:14;;;;;;;;;;;;;;;-144.43;100.00;67396.00;4899676;29;19930;-61
2022/11/01 10:10:40;;;;;;;;;;;;;;;-144.43;100.00;67396.00;4899439;29;19923;-61
2022/11/01 10:13:35;;;;;;;;;;;;;;;-144.43;100.00;67396.00;4899551;29;19962;-62
2022/11/01 10:16:05;;;;;;;;;;;;;;;-144.43;100.00;67396.00;4894730;29;19923;-61
2022/11/01 10:18:32;;;;;;;;;;;;;;;-144.43;100.00;67396.00;4899288;29;20326;-61
2022/11/01 10:21:01;;;;;;;;;;;;;;;-144.43;100.00;67396.00;4899472;29;19923;-61
2022/11/01 10:23:45;;;;;;;;;;;;;;;-144.43;100.00;67396.00;4899289;29;20397;-61
2022/11/01 10:26:15;;;;;;;;;;;;;;;-144.43;100.00;67396.00;4899349;29;19924;-62
2022/11/01 10:29:01;;;;;;;;;;;;;;;-144.43;100.00;67396.00;4899213;29;19942;-60
2022/11/01 10:31:27;;;;;;;;;;;;;;;-144.43;100.00;67396.00;4899269;29;19927;-62
2022/11/01 10:34:02;;;;;;;;;;;;;;;-144.43;100.00;67396.00;4899306;29;19926;-61
2022/11/01 10:36:32;;;;;;;;;;;;;;;-144.43;100.00;67396.00;4899231;29;20010;-62
2022/11/01 10:39:14;;;;;;;;;;;;;;;-144.43;100.00;67396.00;4899690;29;19924;-61
2022/11/01 10:41:49;;;;;;;;;;;;;;;-144.43;100.00;67396.00;4902776;29;19927;-62
2022/11/01 10:44:26;;;;;;;;;;;;;;;-144.43;100.00;67396.00;4894180;29;19974;-62
2022/11/01 10:46:54;;;;;;;;;;;;;;;-144.43;100.00;67396.00;4899068;29;19966;-62
2022/11/01 10:49:24;;;;;;;;;;;;;;;-144.43;100.00;67396.00;4898792;29;19919;-61
2022/11/01 10:51:53;;;;;;;;;;;;;;;-144.43;100.00;67396.00;4898862;29;20365;-61
2022/11/01 10:54:22;;;;;;;;;;;;;;;-144.43;100.00;67396.00;4898831;29;19927;-61
2022/11/01 10:56:51;;;;;;;;;;;;;;;-144.43;100.00;67396.00;4898705;29;19927;-62
2022/11/01 10:59:21;;;;;;;;;;;;;;;-144.43;100.00;67396.00;4898710;29;20381;-63
2022/11/01 11:01:49;;;;;;;;;;;;;;;-144.43;100.00;67396.00;4898808;29;19958;-62
2022/11/01 11:04:19;;;;;;;;;;;;;;;-144.43;100.00;67396.00;4898552;29;19945;-61
2022/11/01 11:06:45;;;;;;;;;;;;;;;-144.43;100.00;67396.00;4898541;29;19983;-61
2022/11/01 11:09:27;;;;;;;;;;;;;;;-144.43;100.00;67396.00;4898132;29;20377;-61
2022/11/01 11:11:56;;;;;;;;;;;;;;;-144.43;100.00;67396.00;4898555;29;19923;-61
2022/11/01 11:14:23;;;;;;;;;;;;;;;-144.43;100.00;67396.00;4898436;29;19920;-61
2022/11/01 11:16:50;;;;;;;;;;;;;;;-144.43;100.00;67396.00;4898442;29;19923;-61
2022/11/01 11:19:20;;;;;;;;;;;;;;;-144.43;100.00;67396.00;4898353;29;20018;-61
2022/11/01 11:21:48;;;;;;;;;;;;;;;-144.43;100.00;67396.00;4898458;29;20293;-61
2022/11/01 11:24:19;;;;;;;;;;;;;;;-144.43;100.00;67396.00;4883188;29;19919;-60
2022/11/01 11:26:47;;;;;;;;;;;;;;;-144.43;100.00;67396.00;4897953;29;19927;-61
2022/11/01 11:29:29;;;;;;;;;;;;;;;-144.43;100.00;67396.00;4898005;29;19978;-61
2022/11/01 11:31:58;;;;;;;;;;;;;;;-144.43;100.00;67396.00;4911990;29;20026;-61
2022/11/01 11:34:35;;;;;;;;;;;;;;;-144.43;100.00;67396.00;4881362;29;19967;-61
2022/11/01 11:37:02;;;;;;;;;;;;;;;-144.43;100.00;67396.00;4898058;29;20040;-61
2022/11/01 11:39:34;;;;;;;;;;;;;;;-144.43;100.00;67396.00;4897523;29;20018;-61
2022/11/01 11:42:13;;;;;;;;;;;;;;;-144.43;100.00;67396.00;4897568;29;19931;-61
2022/11/01 11:44:42;;;;;;;;;;;;;;;-144.43;100.00;67396.00;4898100;29;19923;-61
2022/11/01 11:47:33;;;;;;;;;;;;;;;-144.43;100.00;67396.00;4897877;29;19927;-61
2022/11/01 11:50:15;;;;;;;;;;;;;;;-144.43;100.00;67396.00;4897774;29;19923;-61
2022/11/01 11:52:42;;;;;;;;;;;;;;;-144.43;100.00;67396.00;4897905;29;19923;-62
2022/11/01 11:55:26;;;;;;;;;;;;;;;-144.43;100.00;67396.00;4897309;29;19920;-60
2022/11/01 11:57:54;;;;;;;;;;;;;;;-144.43;100.00;67396.00;4912262;29;19924;-60
2022/11/01 12:00:22;;;;;;;;;;;;;;;-144.43;100.00;67396.00;4897746;29;20262;-61
2022/11/01 12:02:49;;;;;;;;;;;;;;;-144.43;100.00;67396.00;4897403;29;20423;-62
2022/11/01 12:05:17;;;;;;;;;;;;;;;-144.43;100.00;67396.00;4897557;29;19919;-61
2022/11/01 12:07:51;;;;;;;;;;;;;;;-144.43;100.00;67396.00;4897470;29;20018;-61
2022/11/01 12:10:29;;;;;;;;;;;;;;;-144.43;100.00;67396.00;4891456;29;19931;-61
2022/11/01 12:12:58;;;;;;;;;;;;;;;-144.43;100.00;67396.00;4897865;29;19924;-61
2022/11/01 12:15:24;;;;;;;;;;;;;;;-144.43;100.00;67396.00;4897515;29;19919;-63
2022/11/01 12:17:51;;;;;;;;;;;;;;;-144.43;100.00;67396.00;4897533;29;19927;-62
2022/11/01 12:20:22;;;;;;;;;;;;;;;-144.43;100.00;67396.00;4897582;29;20018;-62
2022/11/01 12:22:49;;;;;;;;;;;;;;;-144.43;100.00;67396.00;4897478;29;19927;-61
2022/11/01 12:25:18;;;;;;;;;;;;;;;-144.43;100.00;67396.00;4897374;29;19971;-62
2022/11/01 12:27:50;;;;;;;;;;;;;;;-144.43;100.00;67396.00;4897407;29;20698;-61
2022/11/01 12:30:18;;;;;;;;;;;;;;;-144.43;100.00;67396.00;4898684;29;19933;-61
2022/11/01 12:32:52;;;;;;;;;;;;;;;-144.43;100.00;67396.00;4897980;29;19927;-61